sensor_id;sensor_type;location;lat;lon;timestamp;P1;durP1;ratioP1;P2;durP2;ratioP2
20908;SDS011;10614;53.198;6.570;2023-07-20T00:00:06;6.88;;;5.22;;
20908;SDS011;10614;53.198;6.570;2023-07-20T00:02:08;8.43;;;5.85;;
20908;SDS011;10614;53.198;6.570;2023-07-20T00:04:10;8.88;;;6.35;;
20908;SDS011;10614;53.198;6.570;2023-07-20T00:06:11;10.65;;;7.32;;
20908;SDS011;10614;53.198;6.570;2023-07-20T00:08:14;8.57;;;6.50;;
20908;SDS011;10614;53.198;6.570;2023-07-20T00:10:17;8.97;;;7.17;;
20908;SDS011;10614;53.198;6.570;2023-07-20T00:12:19;9.30;;;6.68;;
20908;SDS011;10614;53.198;6.570;2023-07-20T00:14:20;7.97;;;6.45;;
20908;SDS011;10614;53.198;6.570;2023-07-20T00:16:22;7.35;;;5.88;;
20908;SDS011;10614;53.198;6.570;2023-07-20T00:18:24;7.35;;;5.13;;
20908;SDS011;10614;53.198;6.570;2023-07-20T00:20:25;7.70;;;5.78;;
20908;SDS011;10614;53.198;6.570;2023-07-20T00:22:27;9.45;;;6.60;;
20908;SDS011;10614;53.198;6.570;2023-07-20T00:24:30;11.45;;;6.70;;
20908;SDS011;10614;53.198;6.570;2023-07-20T00:26:32;7.03;;;5.38;;
20908;SDS011;10614;53.198;6.570;2023-07-20T00:28:34;8.15;;;6.72;;
20908;SDS011;10614;53.198;6.570;2023-07-20T00:30:37;8.63;;;6.63;;
20908;SDS011;10614;53.198;6.570;2023-07-20T00:32:39;9.82;;;6.15;;
20908;SDS011;10614;53.198;6.570;2023-07-20T00:34:41;8.77;;;5.90;;
20908;SDS011;10614;53.198;6.570;2023-07-20T00:36:43;9.75;;;5.97;;
20908;SDS011;10614;53.198;6.570;2023-07-20T00:38:45;9.23;;;5.97;;
20908;SDS011;10614;53.198;6.570;2023-07-20T00:40:48;8.82;;;6.20;;
20908;SDS011;10614;53.198;6.570;2023-07-20T00:42:50;8.35;;;5.70;;
20908;SDS011;10614;53.198;6.570;2023-07-20T00:44:52;6.43;;;5.03;;
20908;SDS011;10614;53.198;6.570;2023-07-20T00:46:54;7.32;;;5.40;;
20908;SDS011;10614;53.198;6.570;2023-07-20T00:48:56;6.75;;;5.13;;
20908;SDS011;10614;53.198;6.570;2023-07-20T00:50:57;7.05;;;5.60;;
20908;SDS011;10614;53.198;6.570;2023-07-20T00:53:00;11.03;;;5.03;;
20908;SDS011;10614;53.198;6.570;2023-07-20T00:55:06;6.07;;;4.75;;
20908;SDS011;10614;53.198;6.570;2023-07-20T00:57:11;7.87;;;5.50;;
20908;SDS011;10614;53.198;6.570;2023-07-20T00:59:15;6.43;;;4.95;;
20908;SDS011;10614;53.198;6.570;2023-07-20T01:01:17;6.90;;;5.20;;
20908;SDS011;10614;53.198;6.570;2023-07-20T01:03:18;6.25;;;4.32;;
20908;SDS011;10614;53.198;6.570;2023-07-20T01:05:19;7.18;;;5.35;;
20908;SDS011;10614;53.198;6.570;2023-07-20T01:07:23;6.68;;;4.80;;
20908;SDS011;10614;53.198;6.570;2023-07-20T01:09:28;6.55;;;4.97;;
20908;SDS011;10614;53.198;6.570;2023-07-20T01:11:38;8.90;;;5.28;;
20908;SDS011;10614;53.198;6.570;2023-07-20T01:13:46;6.28;;;5.03;;
20908;SDS011;10614;53.198;6.570;2023-07-20T01:15:53;6.40;;;4.82;;
20908;SDS011;10614;53.198;6.570;2023-07-20T01:17:58;5.85;;;4.55;;
20908;SDS011;10614;53.198;6.570;2023-07-20T01:20:01;8.65;;;4.95;;
20908;SDS011;10614;53.198;6.570;2023-07-20T01:22:09;6.63;;;4.50;;
20908;SDS011;10614;53.198;6.570;2023-07-20T01:24:44;6.93;;;5.00;;
20908;SDS011;10614;53.198;6.570;2023-07-20T01:29:47;6.55;;;4.75;;
20908;SDS011;10614;53.198;6.570;2023-07-20T01:32:10;5.47;;;4.30;;
20908;SDS011;10614;53.198;6.570;2023-07-20T01:34:12;5.88;;;4.57;;
20908;SDS011;10614;53.198;6.570;2023-07-20T01:36:19;6.53;;;5.10;;
20908;SDS011;10614;53.198;6.570;2023-07-20T01:38:24;5.85;;;4.80;;
20908;SDS011;10614;53.198;6.570;2023-07-20T01:40:26;5.80;;;4.40;;
20908;SDS011;10614;53.198;6.570;2023-07-20T01:42:28;9.10;;;5.72;;
20908;SDS011;10614;53.198;6.570;2023-07-20T01:44:30;7.88;;;6.20;;
20908;SDS011;10614;53.198;6.570;2023-07-20T01:46:32;9.77;;;6.15;;
20908;SDS011;10614;53.198;6.570;2023-07-20T01:48:35;6.38;;;5.45;;
20908;SDS011;10614;53.198;6.570;2023-07-20T01:50:38;6.50;;;5.13;;
20908;SDS011;10614;53.198;6.570;2023-07-20T01:52:40;7.78;;;5.55;;
20908;SDS011;10614;53.198;6.570;2023-07-20T01:54:42;8.68;;;5.90;;
20908;SDS011;10614;53.198;6.570;2023-07-20T01:56:44;6.88;;;5.03;;
20908;SDS011;10614;53.198;6.570;2023-07-20T01:58:45;8.10;;;6.07;;
20908;SDS011;10614;53.198;6.570;2023-07-20T02:00:47;6.78;;;5.45;;
20908;SDS011;10614;53.198;6.570;2023-07-20T02:02:49;9.30;;;6.53;;
20908;SDS011;10614;53.198;6.570;2023-07-20T02:04:53;8.32;;;6.40;;
20908;SDS011;10614;53.198;6.570;2023-07-20T02:06:54;7.75;;;6.15;;
20908;SDS011;10614;53.198;6.570;2023-07-20T02:08:56;9.00;;;6.25;;
20908;SDS011;10614;53.198;6.570;2023-07-20T02:10:56;8.27;;;6.65;;
20908;SDS011;10614;53.198;6.570;2023-07-20T02:12:58;8.00;;;6.68;;
20908;SDS011;10614;53.198;6.570;2023-07-20T02:15:00;7.00;;;5.72;;
20908;SDS011;10614;53.198;6.570;2023-07-20T02:17:06;7.13;;;6.22;;
20908;SDS011;10614;53.198;6.570;2023-07-20T02:19:08;6.85;;;5.45;;
20908;SDS011;10614;53.198;6.570;2023-07-20T02:21:12;7.07;;;5.63;;
20908;SDS011;10614;53.198;6.570;2023-07-20T02:23:14;6.35;;;4.97;;
20908;SDS011;10614;53.198;6.570;2023-07-20T02:25:16;6.18;;;4.88;;
20908;SDS011;10614;53.198;6.570;2023-07-20T02:27:18;6.50;;;4.80;;
20908;SDS011;10614;53.198;6.570;2023-07-20T02:29:20;5.43;;;4.60;;
20908;SDS011;10614;53.198;6.570;2023-07-20T02:31:22;5.90;;;4.65;;
20908;SDS011;10614;53.198;6.570;2023-07-20T02:33:23;5.32;;;4.65;;
20908;SDS011;10614;53.198;6.570;2023-07-20T02:35:24;7.25;;;5.70;;
20908;SDS011;10614;53.198;6.570;2023-07-20T02:37:28;6.70;;;5.45;;
20908;SDS011;10614;53.198;6.570;2023-07-20T02:39:30;8.85;;;6.18;;
20908;SDS011;10614;53.198;6.570;2023-07-20T02:41:32;8.18;;;5.78;;
20908;SDS011;10614;53.198;6.570;2023-07-20T02:43:33;9.07;;;6.68;;
20908;SDS011;10614;53.198;6.570;2023-07-20T02:45:35;11.00;;;7.30;;
20908;SDS011;10614;53.198;6.570;2023-07-20T02:47:37;9.25;;;6.35;;
20908;SDS011;10614;53.198;6.570;2023-07-20T02:49:37;8.60;;;6.40;;
20908;SDS011;10614;53.198;6.570;2023-07-20T02:51:39;7.57;;;6.47;;
20908;SDS011;10614;53.198;6.570;2023-07-20T02:53:43;8.90;;;6.70;;
20908;SDS011;10614;53.198;6.570;2023-07-20T02:55:45;9.63;;;7.68;;
20908;SDS011;10614;53.198;6.570;2023-07-20T02:57:47;8.75;;;6.65;;
20908;SDS011;10614;53.198;6.570;2023-07-20T02:59:49;9.63;;;6.78;;
20908;SDS011;10614;53.198;6.570;2023-07-20T03:01:51;8.25;;;6.85;;
20908;SDS011;10614;53.198;6.570;2023-07-20T03:03:54;7.20;;;6.18;;
20908;SDS011;10614;53.198;6.570;2023-07-20T03:05:56;7.30;;;6.18;;
20908;SDS011;10614;53.198;6.570;2023-07-20T03:07:59;8.25;;;6.75;;
20908;SDS011;10614;53.198;6.570;2023-07-20T03:10:04;11.70;;;7.43;;
20908;SDS011;10614;53.198;6.570;2023-07-20T03:12:09;8.75;;;7.25;;
20908;SDS011;10614;53.198;6.570;2023-07-20T03:14:11;9.00;;;6.93;;
20908;SDS011;10614;53.198;6.570;2023-07-20T03:16:13;8.65;;;7.05;;
20908;SDS011;10614;53.198;6.570;2023-07-20T03:18:17;8.43;;;7.35;;
20908;SDS011;10614;53.198;6.570;2023-07-20T03:20:19;8.68;;;7.05;;
20908;SDS011;10614;53.198;6.570;2023-07-20T03:22:21;7.72;;;6.63;;
20908;SDS011;10614;53.198;6.570;2023-07-20T03:24:24;8.73;;;6.30;;
20908;SDS011;10614;53.198;6.570;2023-07-20T03:26:27;7.53;;;6.47;;
20908;SDS011;10614;53.198;6.570;2023-07-20T03:28:29;8.88;;;6.25;;
20908;SDS011;10614;53.198;6.570;2023-07-20T03:30:31;7.57;;;5.93;;
20908;SDS011;10614;53.198;6.570;2023-07-20T03:32:32;10.20;;;6.40;;
20908;SDS011;10614;53.198;6.570;2023-07-20T03:34:33;7.43;;;6.22;;
20908;SDS011;10614;53.198;6.570;2023-07-20T03:36:35;8.93;;;6.75;;
20908;SDS011;10614;53.198;6.570;2023-07-20T03:38:37;7.85;;;6.50;;
20908;SDS011;10614;53.198;6.570;2023-07-20T03:40:38;8.13;;;6.20;;
20908;SDS011;10614;53.198;6.570;2023-07-20T03:42:42;8.27;;;6.25;;
20908;SDS011;10614;53.198;6.570;2023-07-20T03:44:43;8.07;;;6.38;;
20908;SDS011;10614;53.198;6.570;2023-07-20T03:46:45;11.68;;;6.18;;
20908;SDS011;10614;53.198;6.570;2023-07-20T03:48:47;10.40;;;6.28;;
20908;SDS011;10614;53.198;6.570;2023-07-20T03:50:49;7.65;;;6.47;;
20908;SDS011;10614;53.198;6.570;2023-07-20T03:52:52;9.40;;;6.25;;
20908;SDS011;10614;53.198;6.570;2023-07-20T03:54:55;7.60;;;6.28;;
20908;SDS011;10614;53.198;6.570;2023-07-20T03:56:57;7.38;;;6.07;;
20908;SDS011;10614;53.198;6.570;2023-07-20T03:59:00;8.52;;;6.07;;
20908;SDS011;10614;53.198;6.570;2023-07-20T04:01:02;8.13;;;6.40;;
20908;SDS011;10614;53.198;6.570;2023-07-20T04:03:04;8.77;;;6.00;;
20908;SDS011;10614;53.198;6.570;2023-07-20T04:05:06;9.63;;;6.28;;
20908;SDS011;10614;53.198;6.570;2023-07-20T04:07:08;8.45;;;6.40;;
20908;SDS011;10614;53.198;6.570;2023-07-20T04:09:10;8.00;;;6.07;;
20908;SDS011;10614;53.198;6.570;2023-07-20T04:11:13;6.65;;;5.82;;
20908;SDS011;10614;53.198;6.570;2023-07-20T04:13:15;8.43;;;5.85;;
20908;SDS011;10614;53.198;6.570;2023-07-20T04:15:17;10.13;;;7.00;;
20908;SDS011;10614;53.198;6.570;2023-07-20T04:17:20;8.65;;;6.00;;
20908;SDS011;10614;53.198;6.570;2023-07-20T04:19:22;8.20;;;6.57;;
20908;SDS011;10614;53.198;6.570;2023-07-20T04:21:25;9.68;;;6.93;;
20908;SDS011;10614;53.198;6.570;2023-07-20T04:23:28;7.22;;;6.13;;
20908;SDS011;10614;53.198;6.570;2023-07-20T04:25:30;10.52;;;6.63;;
20908;SDS011;10614;53.198;6.570;2023-07-20T04:27:34;6.90;;;5.80;;
20908;SDS011;10614;53.198;6.570;2023-07-20T04:29:35;8.50;;;5.95;;
20908;SDS011;10614;53.198;6.570;2023-07-20T04:31:39;9.43;;;6.75;;
20908;SDS011;10614;53.198;6.570;2023-07-20T04:33:40;12.70;;;6.38;;
20908;SDS011;10614;53.198;6.570;2023-07-20T04:35:47;8.68;;;6.22;;
20908;SDS011;10614;53.198;6.570;2023-07-20T04:37:51;9.70;;;5.55;;
20908;SDS011;10614;53.198;6.570;2023-07-20T04:39:52;7.03;;;5.43;;
20908;SDS011;10614;53.198;6.570;2023-07-20T04:41:54;7.65;;;5.60;;
20908;SDS011;10614;53.198;6.570;2023-07-20T04:43:55;7.88;;;5.20;;
20908;SDS011;10614;53.198;6.570;2023-07-20T04:45:57;9.85;;;5.80;;
20908;SDS011;10614;53.198;6.570;2023-07-20T04:48:00;6.30;;;5.15;;
20908;SDS011;10614;53.198;6.570;2023-07-20T04:50:00;7.00;;;5.38;;
20908;SDS011;10614;53.198;6.570;2023-07-20T04:52:02;6.57;;;5.20;;
20908;SDS011;10614;53.198;6.570;2023-07-20T04:54:04;7.30;;;5.82;;
20908;SDS011;10614;53.198;6.570;2023-07-20T04:56:06;10.60;;;7.75;;
20908;SDS011;10614;53.198;6.570;2023-07-20T04:58:09;9.75;;;6.60;;
20908;SDS011;10614;53.198;6.570;2023-07-20T05:00:12;9.70;;;6.15;;
20908;SDS011;10614;53.198;6.570;2023-07-20T05:02:14;10.10;;;6.45;;
20908;SDS011;10614;53.198;6.570;2023-07-20T05:04:17;7.72;;;4.95;;
20908;SDS011;10614;53.198;6.570;2023-07-20T05:06:19;10.75;;;5.20;;
20908;SDS011;10614;53.198;6.570;2023-07-20T05:08:21;10.25;;;5.55;;
20908;SDS011;10614;53.198;6.570;2023-07-20T05:10:23;7.47;;;5.78;;
20908;SDS011;10614;53.198;6.570;2023-07-20T05:12:25;8.45;;;5.75;;
20908;SDS011;10614;53.198;6.570;2023-07-20T05:14:26;7.20;;;5.38;;
20908;SDS011;10614;53.198;6.570;2023-07-20T05:16:27;10.05;;;5.88;;
20908;SDS011;10614;53.198;6.570;2023-07-20T05:18:30;7.25;;;5.13;;
20908;SDS011;10614;53.198;6.570;2023-07-20T05:20:33;8.98;;;4.85;;
20908;SDS011;10614;53.198;6.570;2023-07-20T05:22:35;9.07;;;4.80;;
20908;SDS011;10614;53.198;6.570;2023-07-20T05:24:39;6.60;;;4.90;;
20908;SDS011;10614;53.198;6.570;2023-07-20T05:26:41;7.28;;;5.20;;
20908;SDS011;10614;53.198;6.570;2023-07-20T05:28:43;11.13;;;5.85;;
20908;SDS011;10614;53.198;6.570;2023-07-20T05:30:45;8.40;;;5.13;;
20908;SDS011;10614;53.198;6.570;2023-07-20T05:32:46;5.85;;;4.78;;
20908;SDS011;10614;53.198;6.570;2023-07-20T05:34:51;6.90;;;5.60;;
20908;SDS011;10614;53.198;6.570;2023-07-20T05:36:56;7.10;;;5.05;;
20908;SDS011;10614;53.198;6.570;2023-07-20T05:38:57;6.22;;;4.72;;
20908;SDS011;10614;53.198;6.570;2023-07-20T05:40:59;8.45;;;5.57;;
20908;SDS011;10614;53.198;6.570;2023-07-20T05:43:03;9.05;;;4.72;;
20908;SDS011;10614;53.198;6.570;2023-07-20T05:45:05;7.22;;;4.22;;
20908;SDS011;10614;53.198;6.570;2023-07-20T05:47:08;7.63;;;4.18;;
20908;SDS011;10614;53.198;6.570;2023-07-20T05:49:10;9.85;;;4.32;;
20908;SDS011;10614;53.198;6.570;2023-07-20T05:51:12;8.50;;;4.30;;
20908;SDS011;10614;53.198;6.570;2023-07-20T05:53:15;10.70;;;3.47;;
20908;SDS011;10614;53.198;6.570;2023-07-20T05:55:17;9.10;;;3.35;;
20908;SDS011;10614;53.198;6.570;2023-07-20T05:57:19;7.35;;;3.10;;
20908;SDS011;10614;53.198;6.570;2023-07-20T05:59:21;5.32;;;3.03;;
20908;SDS011;10614;53.198;6.570;2023-07-20T06:01:23;5.22;;;3.00;;
20908;SDS011;10614;53.198;6.570;2023-07-20T06:03:27;7.82;;;3.20;;
20908;SDS011;10614;53.198;6.570;2023-07-20T06:05:29;7.50;;;2.58;;
20908;SDS011;10614;53.198;6.570;2023-07-20T06:07:31;8.52;;;2.80;;
20908;SDS011;10614;53.198;6.570;2023-07-20T06:09:34;3.03;;;2.53;;
20908;SDS011;10614;53.198;6.570;2023-07-20T06:11:36;4.97;;;2.30;;
20908;SDS011;10614;53.198;6.570;2023-07-20T06:13:38;5.97;;;2.42;;
20908;SDS011;10614;53.198;6.570;2023-07-20T06:15:39;5.82;;;2.30;;
20908;SDS011;10614;53.198;6.570;2023-07-20T06:17:41;4.63;;;1.90;;
20908;SDS011;10614;53.198;6.570;2023-07-20T06:19:43;9.07;;;2.50;;
20908;SDS011;10614;53.198;6.570;2023-07-20T06:21:51;11.15;;;2.20;;
20908;SDS011;10614;53.198;6.570;2023-07-20T06:23:52;3.90;;;2.50;;
20908;SDS011;10614;53.198;6.570;2023-07-20T06:25:56;3.30;;;2.00;;
20908;SDS011;10614;53.198;6.570;2023-07-20T06:28:00;6.18;;;2.10;;
20908;SDS011;10614;53.198;6.570;2023-07-20T06:30:04;3.90;;;1.92;;
20908;SDS011;10614;53.198;6.570;2023-07-20T06:32:07;4.43;;;2.20;;
20908;SDS011;10614;53.198;6.570;2023-07-20T06:34:08;4.82;;;2.22;;
20908;SDS011;10614;53.198;6.570;2023-07-20T06:36:10;15.05;;;2.13;;
20908;SDS011;10614;53.198;6.570;2023-07-20T06:38:12;5.75;;;2.15;;
20908;SDS011;10614;53.198;6.570;2023-07-20T06:40:15;6.55;;;2.20;;
20908;SDS011;10614;53.198;6.570;2023-07-20T06:42:19;8.57;;;2.20;;
20908;SDS011;10614;53.198;6.570;2023-07-20T06:44:20;8.38;;;2.45;;
20908;SDS011;10614;53.198;6.570;2023-07-20T06:46:23;10.95;;;3.45;;
20908;SDS011;10614;53.198;6.570;2023-07-20T06:48:25;7.93;;;2.33;;
20908;SDS011;10614;53.198;6.570;2023-07-20T06:50:26;4.07;;;2.03;;
20908;SDS011;10614;53.198;6.570;2023-07-20T06:52:28;4.10;;;2.38;;
20908;SDS011;10614;53.198;6.570;2023-07-20T06:54:30;3.08;;;1.90;;
20908;SDS011;10614;53.198;6.570;2023-07-20T06:56:32;5.15;;;2.00;;
20908;SDS011;10614;53.198;6.570;2023-07-20T06:58:35;3.03;;;1.70;;
20908;SDS011;10614;53.198;6.570;2023-07-20T07:00:40;10.55;;;2.92;;
20908;SDS011;10614;53.198;6.570;2023-07-20T07:02:42;3.95;;;2.05;;
20908;SDS011;10614;53.198;6.570;2023-07-20T07:04:44;7.22;;;2.38;;
20908;SDS011;10614;53.198;6.570;2023-07-20T07:06:47;6.20;;;2.83;;
20908;SDS011;10614;53.198;6.570;2023-07-20T07:08:49;8.38;;;2.55;;
20908;SDS011;10614;53.198;6.570;2023-07-20T07:10:51;4.13;;;1.75;;
20908;SDS011;10614;53.198;6.570;2023-07-20T07:12:54;5.93;;;2.00;;
20908;SDS011;10614;53.198;6.570;2023-07-20T07:15:03;19.70;;;2.72;;
20908;SDS011;10614;53.198;6.570;2023-07-20T07:17:06;6.55;;;2.08;;
20908;SDS011;10614;53.198;6.570;2023-07-20T07:19:08;8.10;;;2.65;;
20908;SDS011;10614;53.198;6.570;2023-07-20T07:21:10;6.70;;;2.60;;
20908;SDS011;10614;53.198;6.570;2023-07-20T07:23:13;7.22;;;2.45;;
20908;SDS011;10614;53.198;6.570;2023-07-20T07:25:15;8.43;;;2.97;;
20908;SDS011;10614;53.198;6.570;2023-07-20T07:27:16;9.88;;;3.08;;
20908;SDS011;10614;53.198;6.570;2023-07-20T07:29:18;9.45;;;2.70;;
20908;SDS011;10614;53.198;6.570;2023-07-20T07:31:21;7.65;;;2.17;;
20908;SDS011;10614;53.198;6.570;2023-07-20T07:33:23;12.18;;;3.08;;
20908;SDS011;10614;53.198;6.570;2023-07-20T07:35:25;7.93;;;2.55;;
20908;SDS011;10614;53.198;6.570;2023-07-20T07:37:31;5.65;;;2.40;;
20908;SDS011;10614;53.198;6.570;2023-07-20T07:39:34;5.43;;;2.50;;
20908;SDS011;10614;53.198;6.570;2023-07-20T07:41:36;8.35;;;2.55;;
20908;SDS011;10614;53.198;6.570;2023-07-20T07:43:39;8.02;;;2.50;;
20908;SDS011;10614;53.198;6.570;2023-07-20T07:45:41;7.20;;;2.72;;
20908;SDS011;10614;53.198;6.570;2023-07-20T07:47:44;8.38;;;2.60;;
20908;SDS011;10614;53.198;6.570;2023-07-20T07:49:46;9.40;;;2.78;;
20908;SDS011;10614;53.198;6.570;2023-07-20T07:51:48;7.45;;;2.60;;
20908;SDS011;10614;53.198;6.570;2023-07-20T07:53:50;9.52;;;2.47;;
20908;SDS011;10614;53.198;6.570;2023-07-20T07:55:52;5.63;;;2.38;;
20908;SDS011;10614;53.198;6.570;2023-07-20T07:57:54;7.32;;;2.70;;
20908;SDS011;10614;53.198;6.570;2023-07-20T07:59:56;6.70;;;2.30;;
20908;SDS011;10614;53.198;6.570;2023-07-20T08:01:58;7.32;;;2.50;;
20908;SDS011;10614;53.198;6.570;2023-07-20T08:04:01;10.40;;;2.25;;
20908;SDS011;10614;53.198;6.570;2023-07-20T08:06:03;9.27;;;2.43;;
20908;SDS011;10614;53.198;6.570;2023-07-20T08:08:05;7.55;;;2.40;;
20908;SDS011;10614;53.198;6.570;2023-07-20T08:10:10;4.40;;;2.00;;
20908;SDS011;10614;53.198;6.570;2023-07-20T08:12:11;6.80;;;2.40;;
20908;SDS011;10614;53.198;6.570;2023-07-20T08:14:16;8.30;;;1.95;;
20908;SDS011;10614;53.198;6.570;2023-07-20T08:16:19;9.85;;;2.20;;
20908;SDS011;10614;53.198;6.570;2023-07-20T08:18:21;7.03;;;2.40;;
20908;SDS011;10614;53.198;6.570;2023-07-20T08:20:24;7.85;;;2.20;;
20908;SDS011;10614;53.198;6.570;2023-07-20T08:22:26;6.28;;;1.90;;
20908;SDS011;10614;53.198;6.570;2023-07-20T08:24:28;6.35;;;2.40;;
20908;SDS011;10614;53.198;6.570;2023-07-20T08:26:30;7.22;;;2.05;;
20908;SDS011;10614;53.198;6.570;2023-07-20T08:28:33;7.28;;;2.00;;
20908;SDS011;10614;53.198;6.570;2023-07-20T08:30:39;7.97;;;1.90;;
20908;SDS011;10614;53.198;6.570;2023-07-20T08:32:41;6.10;;;1.77;;
20908;SDS011;10614;53.198;6.570;2023-07-20T08:34:43;16.50;;;2.08;;
20908;SDS011;10614;53.198;6.570;2023-07-20T08:36:46;7.05;;;2.22;;
20908;SDS011;10614;53.198;6.570;2023-07-20T08:38:48;12.50;;;2.15;;
20908;SDS011;10614;53.198;6.570;2023-07-20T08:40:51;5.15;;;1.83;;
20908;SDS011;10614;53.198;6.570;2023-07-20T08:42:55;6.43;;;1.88;;
20908;SDS011;10614;53.198;6.570;2023-07-20T08:44:59;6.07;;;1.40;;
20908;SDS011;10614;53.198;6.570;2023-07-20T08:47:02;4.18;;;1.15;;
20908;SDS011;10614;53.198;6.570;2023-07-20T08:49:05;5.93;;;1.00;;
20908;SDS011;10614;53.198;6.570;2023-07-20T08:51:07;3.17;;;0.88;;
20908;SDS011;10614;53.198;6.570;2023-07-20T08:53:12;15.13;;;2.35;;
20908;SDS011;10614;53.198;6.570;2023-07-20T08:55:14;4.15;;;1.60;;
20908;SDS011;10614;53.198;6.570;2023-07-20T08:57:16;4.28;;;1.23;;
20908;SDS011;10614;53.198;6.570;2023-07-20T08:59:19;6.38;;;1.20;;
20908;SDS011;10614;53.198;6.570;2023-07-20T09:01:23;6.47;;;1.37;;
20908;SDS011;10614;53.198;6.570;2023-07-20T09:03:25;15.77;;;1.77;;
20908;SDS011;10614;53.198;6.570;2023-07-20T09:05:27;9.40;;;1.10;;
20908;SDS011;10614;53.198;6.570;2023-07-20T09:07:28;5.43;;;1.02;;
20908;SDS011;10614;53.198;6.570;2023-07-20T09:09:31;3.83;;;1.15;;
20908;SDS011;10614;53.198;6.570;2023-07-20T09:11:33;2.35;;;1.23;;
20908;SDS011;10614;53.198;6.570;2023-07-20T09:13:35;2.42;;;1.10;;
20908;SDS011;10614;53.198;6.570;2023-07-20T09:15:38;3.63;;;1.20;;
20908;SDS011;10614;53.198;6.570;2023-07-20T09:17:43;3.35;;;1.13;;
20908;SDS011;10614;53.198;6.570;2023-07-20T09:19:48;4.15;;;1.10;;
20908;SDS011;10614;53.198;6.570;2023-07-20T09:21:50;2.35;;;0.90;;
20908;SDS011;10614;53.198;6.570;2023-07-20T09:23:53;4.82;;;1.08;;
20908;SDS011;10614;53.198;6.570;2023-07-20T09:28:02;8.68;;;1.50;;
20908;SDS011;10614;53.198;6.570;2023-07-20T09:30:04;10.70;;;1.70;;
20908;SDS011;10614;53.198;6.570;2023-07-20T09:32:07;4.28;;;1.30;;
20908;SDS011;10614;53.198;6.570;2023-07-20T09:34:09;4.38;;;1.02;;
20908;SDS011;10614;53.198;6.570;2023-07-20T09:36:11;8.68;;;1.48;;
20908;SDS011;10614;53.198;6.570;2023-07-20T09:38:13;4.88;;;1.00;;
20908;SDS011;10614;53.198;6.570;2023-07-20T09:40:17;7.75;;;1.58;;
20908;SDS011;10614;53.198;6.570;2023-07-20T09:42:22;7.13;;;1.15;;
20908;SDS011;10614;53.198;6.570;2023-07-20T09:44:27;2.40;;;1.02;;
20908;SDS011;10614;53.198;6.570;2023-07-20T09:46:40;3.58;;;1.17;;
20908;SDS011;10614;53.198;6.570;2023-07-20T09:48:43;5.03;;;1.33;;
20908;SDS011;10614;53.198;6.570;2023-07-20T09:50:53;4.15;;;0.88;;
20908;SDS011;10614;53.198;6.570;2023-07-20T09:52:55;5.25;;;1.20;;
20908;SDS011;10614;53.198;6.570;2023-07-20T09:54:58;9.18;;;1.40;;
20908;SDS011;10614;53.198;6.570;2023-07-20T09:57:01;4.90;;;1.13;;
20908;SDS011;10614;53.198;6.570;2023-07-20T09:59:05;9.60;;;1.38;;
20908;SDS011;10614;53.198;6.570;2023-07-20T10:01:07;9.35;;;1.40;;
20908;SDS011;10614;53.198;6.570;2023-07-20T10:03:13;7.43;;;1.33;;
20908;SDS011;10614;53.198;6.570;2023-07-20T10:05:16;5.47;;;1.20;;
20908;SDS011;10614;53.198;6.570;2023-07-20T10:07:22;3.47;;;1.23;;
20908;SDS011;10614;53.198;6.570;2023-07-20T10:09:28;4.13;;;1.38;;
20908;SDS011;10614;53.198;6.570;2023-07-20T10:11:34;3.00;;;1.20;;
20908;SDS011;10614;53.198;6.570;2023-07-20T10:13:37;13.02;;;1.98;;
20908;SDS011;10614;53.198;6.570;2023-07-20T10:15:43;11.73;;;1.73;;
20908;SDS011;10614;53.198;6.570;2023-07-20T10:17:52;8.48;;;1.75;;
20908;SDS011;10614;53.198;6.570;2023-07-20T10:19:59;4.25;;;1.20;;
20908;SDS011;10614;53.198;6.570;2023-07-20T10:22:03;10.43;;;1.27;;
20908;SDS011;10614;53.198;6.570;2023-07-20T10:24:12;4.32;;;1.13;;
20908;SDS011;10614;53.198;6.570;2023-07-20T10:26:15;5.72;;;1.20;;
20908;SDS011;10614;53.198;6.570;2023-07-20T10:28:17;4.93;;;1.40;;
20908;SDS011;10614;53.198;6.570;2023-07-20T10:30:19;6.47;;;1.20;;
20908;SDS011;10614;53.198;6.570;2023-07-20T10:32:23;4.38;;;1.25;;
20908;SDS011;10614;53.198;6.570;2023-07-20T10:34:25;2.88;;;1.17;;
20908;SDS011;10614;53.198;6.570;2023-07-20T10:36:27;3.58;;;1.17;;
20908;SDS011;10614;53.198;6.570;2023-07-20T10:38:39;4.13;;;1.15;;
20908;SDS011;10614;53.198;6.570;2023-07-20T10:40:41;3.15;;;0.95;;
20908;SDS011;10614;53.198;6.570;2023-07-20T10:42:43;8.35;;;1.40;;
20908;SDS011;10614;53.198;6.570;2023-07-20T10:44:48;2.83;;;0.93;;
20908;SDS011;10614;53.198;6.570;2023-07-20T10:46:52;3.17;;;1.43;;
20908;SDS011;10614;53.198;6.570;2023-07-20T10:49:03;3.05;;;1.13;;
20908;SDS011;10614;53.198;6.570;2023-07-20T10:53:12;3.53;;;1.08;;
20908;SDS011;10614;53.198;6.570;2023-07-20T10:55:15;4.68;;;1.05;;
20908;SDS011;10614;53.198;6.570;2023-07-20T10:57:21;2.55;;;0.93;;
20908;SDS011;10614;53.198;6.570;2023-07-20T10:59:36;3.60;;;1.10;;
20908;SDS011;10614;53.198;6.570;2023-07-20T11:01:38;2.38;;;1.05;;
20908;SDS011;10614;53.198;6.570;2023-07-20T11:03:48;1.90;;;0.90;;
20908;SDS011;10614;53.198;6.570;2023-07-20T11:05:52;26.00;;;3.30;;
20908;SDS011;10614;53.198;6.570;2023-07-20T11:07:53;3.38;;;1.13;;
20908;SDS011;10614;53.198;6.570;2023-07-20T11:09:55;4.90;;;1.25;;
20908;SDS011;10614;53.198;6.570;2023-07-20T11:12:16;4.90;;;1.63;;
20908;SDS011;10614;53.198;6.570;2023-07-20T11:14:22;4.63;;;1.50;;
20908;SDS011;10614;53.198;6.570;2023-07-20T11:16:38;4.03;;;1.10;;
20908;SDS011;10614;53.198;6.570;2023-07-20T11:18:41;5.68;;;1.33;;
20908;SDS011;10614;53.198;6.570;2023-07-20T11:20:44;2.50;;;1.27;;
20908;SDS011;10614;53.198;6.570;2023-07-20T11:22:52;3.17;;;1.15;;
20908;SDS011;10614;53.198;6.570;2023-07-20T11:24:54;24.65;;;2.75;;
20908;SDS011;10614;53.198;6.570;2023-07-20T11:26:56;6.10;;;1.25;;
20908;SDS011;10614;53.198;6.570;2023-07-20T11:28:58;21.40;;;2.22;;
20908;SDS011;10614;53.198;6.570;2023-07-20T11:31:00;2.92;;;1.02;;
20908;SDS011;10614;53.198;6.570;2023-07-20T11:33:02;3.85;;;1.17;;
20908;SDS011;10614;53.198;6.570;2023-07-20T11:35:04;2.55;;;1.15;;
20908;SDS011;10614;53.198;6.570;2023-07-20T11:37:06;5.05;;;1.50;;
20908;SDS011;10614;53.198;6.570;2023-07-20T11:39:10;5.70;;;1.30;;
20908;SDS011;10614;53.198;6.570;2023-07-20T11:41:12;4.50;;;1.17;;
20908;SDS011;10614;53.198;6.570;2023-07-20T11:43:15;2.90;;;0.93;;
20908;SDS011;10614;53.198;6.570;2023-07-20T11:45:19;4.50;;;1.20;;
20908;SDS011;10614;53.198;6.570;2023-07-20T11:47:21;3.17;;;1.20;;
20908;SDS011;10614;53.198;6.570;2023-07-20T11:49:22;3.40;;;0.90;;
20908;SDS011;10614;53.198;6.570;2023-07-20T11:51:24;4.43;;;1.35;;
20908;SDS011;10614;53.198;6.570;2023-07-20T11:53:26;3.92;;;1.00;;
20908;SDS011;10614;53.198;6.570;2023-07-20T11:55:29;4.85;;;1.30;;
20908;SDS011;10614;53.198;6.570;2023-07-20T11:57:32;10.82;;;2.10;;
20908;SDS011;10614;53.198;6.570;2023-07-20T11:59:35;4.07;;;1.20;;
20908;SDS011;10614;53.198;6.570;2023-07-20T12:01:36;5.13;;;1.50;;
20908;SDS011;10614;53.198;6.570;2023-07-20T12:03:38;6.30;;;1.58;;
20908;SDS011;10614;53.198;6.570;2023-07-20T12:05:39;5.40;;;1.20;;
20908;SDS011;10614;53.198;6.570;2023-07-20T12:07:41;5.57;;;1.52;;
20908;SDS011;10614;53.198;6.570;2023-07-20T12:09:43;3.35;;;1.10;;
20908;SDS011;10614;53.198;6.570;2023-07-20T12:11:48;3.53;;;1.00;;
20908;SDS011;10614;53.198;6.570;2023-07-20T12:13:50;7.57;;;0.90;;
20908;SDS011;10614;53.198;6.570;2023-07-20T12:15:52;3.15;;;0.98;;
20908;SDS011;10614;53.198;6.570;2023-07-20T12:17:55;13.48;;;1.55;;
20908;SDS011;10614;53.198;6.570;2023-07-20T12:19:58;6.15;;;1.25;;
20908;SDS011;10614;53.198;6.570;2023-07-20T12:22:00;6.60;;;1.42;;
20908;SDS011;10614;53.198;6.570;2023-07-20T12:24:02;7.10;;;1.30;;
20908;SDS011;10614;53.198;6.570;2023-07-20T12:26:07;8.73;;;1.40;;